• Join FlightAware (Why Join?)
  • Login
  • US Flag 
11:10AM EDT


 

Airport Tracker/Info


-or-


 

Live Flight TrackerFlight Track Log ✈ N978AC ✈ 27-Nov-2013 ✈ KAPF - KVRB

Flight Track Log - Related Links

Times and Time Zones

All times are in EST time to prevent confusion due to time zone crossing. See the N978AC flight status page for this flight to view local times or setup timezone preferences in your user account.

Time Position Orientation Groundspeed Altitude Reporting Facility
EST Latitude Longitude Course Direction KTS MPH feet Rate Location/Type
09:44AM 26.3110 -81.5931 46° Northeast  Level FlightAware Approximate
09:45AM 26.3374 -81.5626 46° Northeast  Level FlightAware Approximate
09:46AM 26.3638 -81.5321 46° Northeast  Level FlightAware Approximate
09:47AM 26.3901 -81.5016 46° Northeast  Level FlightAware Approximate
09:48AM 26.4165 -81.4711 46° Northeast  Level FlightAware Approximate
09:49AM 26.4429 -81.4406 46° Northeast  Level FlightAware Approximate
09:50AM 26.4692 -81.4100 46° Northeast  Level FlightAware Approximate
09:50AM 26.3500 -81.4747 39° Northeast 124 143 5,000  Level Miami Center
09:51AM 26.4956 -81.3794 46° Northeast  Level FlightAware Approximate
09:51AM 26.3658 -81.4383 64° Northeast 124 143 5,100  Level Miami Center
09:52AM 26.5263 -81.3544 42° Northeast  Level Estimated
09:52AM 26.3811 -81.4133 56° Northeast 131 151 5,100  Level Miami Center
09:53AM 26.5569 -81.3293 35° Northeast  Level Estimated
09:53AM 26.4011 -81.3792 57° Northeast 131 151 5,000  Level Miami Center
09:54AM 26.5865 -81.3026 39° Northeast  Level FlightAware Approximate
09:54AM 26.4186 -81.3453 60° Northeast 136 157 5,100  Level Miami Center
09:55AM 26.6160 -81.2759 39° Northeast  Level FlightAware Approximate
09:55AM 26.4406 -81.3136 52° Northeast 136 157 5,100  Level Miami Center
09:56AM 26.6456 -81.2492 39° Northeast  Level FlightAware Approximate
09:56AM 26.4683 -81.2914 36° Northeast 123 142 5,100  Level Miami Center
09:57AM 26.4961 -81.2739 29° Northeast 118 136 5,200  Climbing Miami Center
09:58AM 26.5281 -81.2542 29° Northeast 112 129 5,200 -60 Level Miami Center
09:59AM 26.5556 -81.2367 30° Northeast 112 129 5,100  Descending Miami Center
10:00AM 26.5875 -81.2169 29° Northeast 117 135 5,200  Climbing Miami Center
10:01AM 26.6175 -81.1972 30° Northeast 123 142 5,100 -60 Descending Miami Center
10:02AM 26.6453 -81.1750 36° Northeast 123 142 5,100  Level Miami Center
10:03AM 26.6750 -81.1597 25° Northeast 123 142 5,100  Level Miami Center
10:04AM 26.7025 -81.1422 30° Northeast 118 136 5,100 -60 Level Miami Center
10:05AM 26.7344 -81.1200 32° Northeast 123 142 5,000  Descending Miami Center
10:06AM 26.7581 -81.0978 40° Northeast 118 136 5,100 60 Climbing Miami Center
10:07AM 26.7858 -81.0778 33° Northeast 118 136 5,200  Climbing Miami Center
10:08AM 26.8136 -81.0531 38° Northeast 118 136 5,200 -60 Level Miami Center
10:09AM 26.8392 -81.0378 28° Northeast 113 130 5,100  Descending Miami Center
10:10AM 26.8689 -81.0203 28° Northeast 113 130 5,200  Climbing Miami Center
10:11AM 26.8989 -81.0003 31° Northeast 118 136 5,200  Level Miami Center
10:12AM 26.9286 -80.9806 31° Northeast 118 136 5,200  Level Miami Center
10:13AM 26.9522 -80.9603 37° Northeast 118 136 5,200  Level Miami Center
10:14AM 26.9778 -80.9403 35° Northeast 113 130 5,200  Level Miami Center
10:15AM 27.0097 -80.9203 29° Northeast 113 130 5,200 -60 Level Miami Center
10:16AM 27.0394 -80.9003 31° Northeast 118 136 5,100  Descending Miami Center
10:17AM 27.0692 -80.8850 25° Northeast 125 144 5,200  Climbing Miami Center
10:18AM 27.0925 -80.8625 41° Northeast 120 138 5,100  Descending Miami Center
10:19AM 27.1222 -80.8450 28° Northeast 120 138 5,200 60 Climbing Miami Center
10:20AM 27.1503 -80.8203 38° Northeast 120 138 5,300  Climbing Miami Center
10:21AM 27.1819 -80.8003 29° Northeast 120 138 5,200 -120 Descending Miami Center
10:22AM 27.2117 -80.7803 31° Northeast 120 138 5,100 -60 Descending Miami Center
10:23AM 27.2272 -80.7481 61° Northeast 125 144 5,100 -60 Level Miami Center
10:24AM 27.2489 -80.7161 53° Northeast 125 144 5,000 -60 Descending Miami Center
10:25AM 27.2708 -80.6794 56° Northeast 125 144 5,000  Level Miami Center
10:26AM 27.2883 -80.6450 60° Northeast 125 144 5,000  Level Miami Center
10:27AM 27.3058 -80.6175 54° Northeast 120 138 5,000  Level Miami Center
10:28AM 27.3256 -80.5856 55° Northeast 120 138 5,100  Climbing Miami Center
10:29AM 27.3453 -80.5511 57° Northeast 120 138 5,100 -300 Level Miami Center
10:30AM 27.3669 -80.5167 55° Northeast 120 138 4,600 -480 Descending Miami Center
10:31AM 27.3825 -80.4797 65° Northeast 125 144 4,200 -300 Descending Miami Center
10:32AM 27.3939 -80.4450 70° East 125 144 4,100 -120 Descending Miami Center
10:33AM 27.4092 -80.4128 62° Northeast 120 138 4,000  Descending Miami Center
10:34AM 27.4331 -80.3808 50° Northeast 114 131 4,100  Climbing Miami Center
10:35AM 27.4544 -80.3511 51° Northeast 119 137 4,100 -60 Level Miami Center
10:36AM 27.4761 -80.3164 55° Northeast 124 143 4,000 -300 Descending Miami Center
10:37AM 27.4917 -80.2842 61° Northeast 124 143 3,500 -480 Descending Miami Center
10:38AM 27.5153 -80.2522 50° Northeast 124 143 3,100 -300 Descending Miami Center
10:39AM 27.5428 -80.2411 20° North 104 120 2,900 -300 Descending Miami Center
10:40AM 27.5722 -80.2328 14° North 99 114 2,600 -360 Descending Miami Center
10:41AM 27.5931 -80.2311 North 99 114 2,200 -360 Descending Miami Center
10:42AM 27.6008 -80.2522 293° West 69 79 1,900 -360 Descending Miami Center
10:43AM 27.6067 -80.2783 284° West 75 86 1,500 -120 Descending Miami Center
10:44AM 27.6125 -80.2972 289° West 75 86 1,700 60 Climbing Miami Center
10:45AM 27.6203 -80.3186 292° West 70 81 1,700  Level Miami Center
10:46AM 27.6261 -80.3375 289° West 70 81 1,700 -300 Level Miami Center
10:47AM 27.6339 -80.3589 292° West 70 81 1,200 -600 Descending Miami Center
10:48AM 27.6417 -80.3847 289° West 75 86 600 -360 Descending Miami Center
10:49AM 27.6475 -80.3992 295° West 65 75 500 -180 Descending Miami Center
10:50AM 27.6533 -80.4156 292° West 60 69 300 -240 Descending Miami Center